createdAt,value
2018-07-04T00:01:59.864Z,2.20
2018-07-04T00:04:40.460Z,2.10
2018-07-04T00:07:20.749Z,2.30
2018-07-04T00:10:01.061Z,2.00
2018-07-04T00:12:41.443Z,2.27
2018-07-04T00:15:21.797Z,2.47
2018-07-04T00:18:02.350Z,2.10
2018-07-04T00:20:42.676Z,2.10
2018-07-04T00:23:23.205Z,3.20
2018-07-04T00:26:03.699Z,3.17
2018-07-04T00:28:44.212Z,2.70
2018-07-04T00:31:24.717Z,2.87
2018-07-04T00:34:05.098Z,2.80
2018-07-04T00:36:45.338Z,2.70
2018-07-04T00:39:25.805Z,3.00
2018-07-04T00:42:06.119Z,3.73
2018-07-04T00:44:46.489Z,4.60
2018-07-04T00:47:26.751Z,5.00
2018-07-04T00:50:07.088Z,4.83
2018-07-04T00:52:47.594Z,3.97
2018-07-04T00:55:21.934Z,3.97
2018-07-04T00:58:02.329Z,4.47
2018-07-04T01:00:42.715Z,4.57
2018-07-04T01:03:23.264Z,4.50
2018-07-04T01:06:03.631Z,3.30
2018-07-04T01:08:44.207Z,3.10
2018-07-04T01:11:24.751Z,3.00
2018-07-04T01:14:05.537Z,3.10
2018-07-04T01:16:46.082Z,3.50
2018-07-04T01:19:26.591Z,3.40
2018-07-04T01:22:07.145Z,3.10
2018-07-04T01:24:47.490Z,3.47
2018-07-04T01:27:27.847Z,3.10
2018-07-04T01:30:08.520Z,3.33
2018-07-04T01:32:49.084Z,3.50
2018-07-04T01:35:29.707Z,3.70
2018-07-04T01:38:10.248Z,3.30
2018-07-04T01:40:50.798Z,3.37
2018-07-04T01:43:31.265Z,3.67
2018-07-04T01:46:11.651Z,3.43
2018-07-04T01:48:52.068Z,3.20
2018-07-04T01:51:32.572Z,3.10
2018-07-04T01:54:12.954Z,5.60
2018-07-04T01:56:53.199Z,4.20
2018-07-04T01:59:33.564Z,3.43
2018-07-04T02:02:14.047Z,3.70
2018-07-04T02:04:54.471Z,4.00
2018-07-04T02:07:34.736Z,3.77
2018-07-04T02:10:15.177Z,3.50
2018-07-04T02:12:55.528Z,3.70
2018-07-04T02:15:36.019Z,3.40
2018-07-04T02:18:16.347Z,3.30
2018-07-04T02:20:56.779Z,3.20
2018-07-04T02:23:37.136Z,3.37
2018-07-04T02:26:17.596Z,3.43
2018-07-04T02:28:58.005Z,3.80
2018-07-04T02:31:38.557Z,3.70
2018-07-04T02:34:23.243Z,3.37
2018-07-04T02:37:03.664Z,3.90
2018-07-04T02:39:44.129Z,3.73
2018-07-04T02:42:24.709Z,3.67
2018-07-04T02:45:05.322Z,4.03
2018-07-04T02:47:45.675Z,3.80
2018-07-04T02:50:26.084Z,3.87
2018-07-04T02:53:06.473Z,3.97
2018-07-04T02:55:46.883Z,3.40
2018-07-04T02:58:27.159Z,4.33
2018-07-04T03:01:07.605Z,4.00
2018-07-04T03:03:48.175Z,4.00
2018-07-04T03:06:28.461Z,3.93
2018-07-04T03:09:08.733Z,4.70
2018-07-04T03:11:49.333Z,4.47
2018-07-04T03:14:29.807Z,4.77
2018-07-04T03:17:10.175Z,6.07
2018-07-04T03:19:50.512Z,4.60
2018-07-04T03:22:30.973Z,6.23
2018-07-04T03:25:11.582Z,5.70
2018-07-04T03:27:52.055Z,6.50
2018-07-04T03:30:32.367Z,6.23
2018-07-04T03:33:13.003Z,6.33
2018-07-04T03:35:53.293Z,5.13
2018-07-04T03:38:33.815Z,5.60
2018-07-04T03:41:14.234Z,5.50
2018-07-04T03:43:54.645Z,5.60
2018-07-04T03:46:34.953Z,5.90
2018-07-04T03:49:15.317Z,5.57
2018-07-04T03:51:55.880Z,6.13
2018-07-04T03:54:36.233Z,6.07
2018-07-04T03:57:16.592Z,6.07
2018-07-04T03:59:56.949Z,6.20
2018-07-04T04:02:37.495Z,6.30
2018-07-04T04:05:17.984Z,6.80
2018-07-04T04:07:58.402Z,6.10
2018-07-04T04:10:38.950Z,6.40
2018-07-04T04:13:19.272Z,5.57
2018-07-04T04:15:59.703Z,5.97
2018-07-04T04:18:40.039Z,5.60
2018-07-04T04:21:20.446Z,6.67
2018-07-04T04:24:00.921Z,6.17
2018-07-04T04:26:41.343Z,9.73
2018-07-04T04:29:21.754Z,7.60
2018-07-04T04:32:02.057Z,6.67
2018-07-04T04:34:42.484Z,7.00
2018-07-04T04:37:22.899Z,6.80
2018-07-04T04:40:03.105Z,6.67
2018-07-04T04:42:43.531Z,6.93
2018-07-04T04:45:23.852Z,7.07
2018-07-04T04:48:04.675Z,7.00
2018-07-04T04:50:45.124Z,7.00
2018-07-04T04:53:25.609Z,6.60
2018-07-04T04:56:06.215Z,7.27
2018-07-04T04:58:46.669Z,7.47
2018-07-04T05:01:27.195Z,6.43
2018-07-04T05:04:07.617Z,8.63
2018-07-04T05:06:47.940Z,7.80
2018-07-04T05:09:28.348Z,7.50
2018-07-04T05:12:08.736Z,5.83
2018-07-04T05:14:49.125Z,6.10
2018-07-04T05:17:29.467Z,7.07
2018-07-04T05:20:09.729Z,6.80
2018-07-04T05:22:50.302Z,6.80
2018-07-04T05:25:30.592Z,6.13
2018-07-04T05:28:10.973Z,6.30
2018-07-04T05:30:51.342Z,6.40
2018-07-04T05:33:31.664Z,5.53
2018-07-04T05:36:12.192Z,6.40
2018-07-04T05:38:52.467Z,6.33
2018-07-04T05:41:32.712Z,6.27
2018-07-04T05:44:13.147Z,6.60
2018-07-04T05:46:53.631Z,6.33
2018-07-04T05:49:34.057Z,6.27
2018-07-04T05:52:14.483Z,9.83
2018-07-04T05:54:54.808Z,9.50
2018-07-04T05:57:35.259Z,7.70
2018-07-04T06:00:15.681Z,7.83
2018-07-04T06:02:56.223Z,8.57
2018-07-04T06:05:36.512Z,6.83
2018-07-04T06:08:17.158Z,7.20
2018-07-04T06:10:58.238Z,7.70
2018-07-04T06:13:38.698Z,7.07
2018-07-04T06:16:19.798Z,7.20
2018-07-04T06:19:00.373Z,7.83
2018-07-04T06:21:40.675Z,6.97
2018-07-04T06:24:21.051Z,7.10
2018-07-04T06:27:01.428Z,7.50
2018-07-04T06:29:41.840Z,6.57
2018-07-04T06:32:22.378Z,7.10
2018-07-04T06:35:02.795Z,6.43
2018-07-04T06:37:41.289Z,6.90
2018-07-04T06:40:10.090Z,6.10
2018-07-04T06:42:38.648Z,6.50
2018-07-04T06:45:06.763Z,5.97
2018-07-04T06:47:34.879Z,6.90
2018-07-04T06:50:03.004Z,6.93
2018-07-04T06:52:31.116Z,7.10
2018-07-04T06:54:59.235Z,6.63
2018-07-04T06:57:27.331Z,7.10
2018-07-04T06:59:55.440Z,6.57
2018-07-04T07:02:23.605Z,6.90
2018-07-04T07:05:04.370Z,6.03
2018-07-04T07:07:44.706Z,7.00
2018-07-04T07:10:25.183Z,6.33
2018-07-04T07:13:05.406Z,6.83
2018-07-04T07:15:45.840Z,7.03
2018-07-04T07:18:26.179Z,7.37
2018-07-04T07:21:06.648Z,6.50
2018-07-04T07:23:47.104Z,6.90
2018-07-04T07:26:27.408Z,7.40
2018-07-04T07:29:07.792Z,6.50
2018-07-04T07:31:48.303Z,6.20
2018-07-04T07:34:28.699Z,7.20
2018-07-04T07:37:09.048Z,8.67
2018-07-04T07:39:43.439Z,7.57
2018-07-04T07:42:23.865Z,7.67
2018-07-04T07:45:04.202Z,5.97
2018-07-04T07:47:44.518Z,6.60
2018-07-04T07:50:24.872Z,7.83
2018-07-04T07:53:05.263Z,7.10
2018-07-04T07:55:45.670Z,6.77
2018-07-04T07:58:25.995Z,7.03
2018-07-04T08:01:06.492Z,6.00
2018-07-04T08:03:47.016Z,6.60
2018-07-04T08:06:27.232Z,6.40
2018-07-04T08:09:07.716Z,6.20
2018-07-04T08:11:48.268Z,6.00
2018-07-04T08:14:28.663Z,7.30
2018-07-04T08:17:09.339Z,6.50
2018-07-04T08:19:49.727Z,5.77
2018-07-04T08:22:30.108Z,5.63
2018-07-04T08:25:10.567Z,4.87
2018-07-04T08:27:51.168Z,6.23
2018-07-04T08:30:31.973Z,5.37
2018-07-04T08:33:12.548Z,5.80
2018-07-04T08:35:53.029Z,5.43
2018-07-04T08:38:33.547Z,5.77
2018-07-04T08:41:13.912Z,5.50
2018-07-04T08:43:54.331Z,5.30
2018-07-04T08:46:34.688Z,4.77
2018-07-04T08:49:15.113Z,6.37
2018-07-04T08:51:55.663Z,5.53
2018-07-04T08:54:36.130Z,5.30
2018-07-04T08:57:16.676Z,4.80
2018-07-04T08:59:57.074Z,4.13
2018-07-04T09:02:37.552Z,4.63
2018-07-04T09:05:17.963Z,3.57
2018-07-04T09:07:58.433Z,3.67
2018-07-04T09:10:38.987Z,3.90
2018-07-04T09:13:19.344Z,3.70
2018-07-04T09:16:00.024Z,3.63
2018-07-04T09:18:40.511Z,3.70
2018-07-04T09:21:20.911Z,3.90
2018-07-04T09:24:01.382Z,2.90
2018-07-04T09:26:41.804Z,2.50
2018-07-04T09:29:22.343Z,2.63
2018-07-04T09:32:02.874Z,1.83
2018-07-04T09:34:43.430Z,2.30
2018-07-04T09:37:23.801Z,2.13
2018-07-04T09:40:04.134Z,2.67
2018-07-04T09:42:44.557Z,3.00
2018-07-04T09:45:25.217Z,2.67
2018-07-04T09:48:05.664Z,2.57
2018-07-04T09:50:39.968Z,2.50
2018-07-04T09:53:20.300Z,2.20
2018-07-04T09:56:00.817Z,1.90
2018-07-04T09:58:41.352Z,1.90
2018-07-04T10:01:22.861Z,2.23
2018-07-04T10:04:03.615Z,2.13
2018-07-04T10:06:45.066Z,1.90
2018-07-04T10:09:25.388Z,2.03
2018-07-04T10:12:05.891Z,1.60
2018-07-04T10:14:46.251Z,2.20
2018-07-04T10:17:26.726Z,2.27
2018-07-04T10:20:07.848Z,2.20
2018-07-04T10:22:48.393Z,1.60
2018-07-04T10:25:28.823Z,1.60
2018-07-04T10:28:09.180Z,1.90
2018-07-04T10:30:49.796Z,1.50
2018-07-04T10:33:30.311Z,1.70
2018-07-04T10:36:10.697Z,2.03
2018-07-04T10:38:51.062Z,2.03
2018-07-04T10:41:31.629Z,1.70
2018-07-04T10:44:12.208Z,2.13
2018-07-04T10:46:52.611Z,2.00
2018-07-04T10:49:33.014Z,1.70
2018-07-04T10:52:13.552Z,1.87
2018-07-04T10:54:54.181Z,1.57
2018-07-04T10:57:28.691Z,2.13
2018-07-04T11:00:02.987Z,1.70
2018-07-04T11:02:43.429Z,1.60
2018-07-04T11:05:23.889Z,1.60
2018-07-04T11:08:04.295Z,1.77
2018-07-04T11:10:38.702Z,1.70
2018-07-04T11:13:19.062Z,1.80
2018-07-04T11:15:59.587Z,2.10
2018-07-04T11:18:40.128Z,1.80
2018-07-04T11:21:20.413Z,1.70
2018-07-04T11:24:00.913Z,1.90
2018-07-04T11:26:41.475Z,1.70
2018-07-04T11:29:21.756Z,2.23
2018-07-04T11:32:02.148Z,2.07
2018-07-04T11:34:42.552Z,2.30
2018-07-04T11:37:23.153Z,2.13
2018-07-04T11:40:03.647Z,2.20
2018-07-04T11:42:43.986Z,2.20
2018-07-04T11:45:24.398Z,1.60
2018-07-04T11:47:52.745Z,1.80
2018-07-04T11:50:20.771Z,1.90
2018-07-04T11:52:48.876Z,2.00
2018-07-04T11:55:17.060Z,2.50
2018-07-04T11:57:45.119Z,2.70
2018-07-04T12:00:13.313Z,2.00
2018-07-04T12:02:41.670Z,2.20
2018-07-04T12:05:22.125Z,2.07
2018-07-04T12:07:50.507Z,2.33
2018-07-04T12:10:18.536Z,2.00
2018-07-04T12:12:47.048Z,2.20
2018-07-04T12:15:15.228Z,2.20
2018-07-04T12:17:43.328Z,2.10
2018-07-04T12:20:11.409Z,1.90
2018-07-04T12:22:39.551Z,2.20
2018-07-04T12:25:07.915Z,2.10
2018-07-04T12:27:35.951Z,2.00
2018-07-04T12:30:04.031Z,1.83
2018-07-04T12:32:32.169Z,2.03
2018-07-04T12:35:00.250Z,2.10
2018-07-04T12:37:28.385Z,2.10
2018-07-04T12:39:56.754Z,2.10
2018-07-04T12:42:24.887Z,2.23
2018-07-04T12:44:52.973Z,2.50
2018-07-04T12:47:21.108Z,2.20
2018-07-04T12:49:49.207Z,2.00
2018-07-04T12:52:17.584Z,2.40
2018-07-04T12:54:51.361Z,1.90
2018-07-04T12:57:31.905Z,2.13
2018-07-04T13:00:12.241Z,2.10
2018-07-04T13:02:52.822Z,2.33
2018-07-04T13:05:27.274Z,2.80
2018-07-04T13:08:07.531Z,2.30
2018-07-04T13:10:48.209Z,2.17
2018-07-04T13:13:28.583Z,2.20
2018-07-04T13:16:09.097Z,2.50
2018-07-04T13:18:49.511Z,2.37
2018-07-04T13:21:29.888Z,2.40
2018-07-04T13:24:10.272Z,2.63
2018-07-04T13:26:50.663Z,2.40
2018-07-04T13:29:31.059Z,2.93
2018-07-04T13:32:11.544Z,2.63
2018-07-04T13:34:51.925Z,2.47
2018-07-04T13:37:32.391Z,2.80
2018-07-04T13:40:12.715Z,2.73
2018-07-04T13:42:53.063Z,2.63
2018-07-04T13:45:33.497Z,3.10
2018-07-04T13:48:13.904Z,2.90
2018-07-04T13:50:54.239Z,2.73
2018-07-04T13:53:34.663Z,2.63
2018-07-04T13:56:15.160Z,3.53
2018-07-04T13:58:49.685Z,3.17
2018-07-04T14:01:30.235Z,3.90
2018-07-04T14:04:10.672Z,3.90
2018-07-04T14:06:51.031Z,4.60
2018-07-04T14:09:31.454Z,4.00
2018-07-04T14:12:11.954Z,4.00
2018-07-04T14:14:52.436Z,4.80
2018-07-04T14:17:32.774Z,4.27
2018-07-04T14:20:13.201Z,4.40
2018-07-04T14:22:53.572Z,4.10
2018-07-04T14:25:34.143Z,4.10
2018-07-04T14:28:14.998Z,3.90
2018-07-04T14:30:55.514Z,4.80
2018-07-04T14:33:35.927Z,4.47
2018-07-04T14:36:16.531Z,4.30
2018-07-04T14:38:57.062Z,4.37
2018-07-04T14:41:37.833Z,4.40
2018-07-04T14:44:18.188Z,4.40
2018-07-04T14:46:58.709Z,4.10
2018-07-04T14:49:39.104Z,4.63
2018-07-04T14:52:19.622Z,4.20
2018-07-04T14:54:54.310Z,4.70
2018-07-04T14:57:34.471Z,4.50
2018-07-04T15:00:14.967Z,4.43
2018-07-04T15:02:55.355Z,4.30
2018-07-04T15:05:35.839Z,4.60
2018-07-04T15:08:16.337Z,4.93
2018-07-04T15:10:56.728Z,5.30
2018-07-04T15:13:36.991Z,4.63
2018-07-04T15:16:17.563Z,4.40
2018-07-04T15:18:57.773Z,5.23
2018-07-04T15:21:38.084Z,4.40
2018-07-04T15:24:18.471Z,4.40
2018-07-04T15:26:53.024Z,4.80
2018-07-04T15:29:33.311Z,5.17
2018-07-04T15:32:13.653Z,5.00
2018-07-04T15:34:54.101Z,4.80
2018-07-04T15:37:34.532Z,4.57
2018-07-04T15:40:15.080Z,4.50
2018-07-04T15:42:56.220Z,4.33
2018-07-04T15:45:36.776Z,4.10
2018-07-04T15:48:17.151Z,4.73
2018-07-04T15:50:57.522Z,4.47
2018-07-04T15:53:37.869Z,4.53
2018-07-04T15:56:18.321Z,6.20
2018-07-04T15:58:58.639Z,4.83
2018-07-04T16:01:38.975Z,4.97
2018-07-04T16:04:19.538Z,5.43
2018-07-04T16:06:54.150Z,5.17
2018-07-04T16:09:34.482Z,5.03
2018-07-04T16:12:14.818Z,4.50
2018-07-04T16:14:55.184Z,5.10
2018-07-04T16:17:35.440Z,4.90
2018-07-04T16:20:15.748Z,4.63
2018-07-04T16:22:56.283Z,4.70
2018-07-04T16:25:36.694Z,4.43
2018-07-04T16:28:17.022Z,4.47
2018-07-04T16:30:57.443Z,4.27
2018-07-04T16:33:38.892Z,4.70
2018-07-04T16:36:13.309Z,5.20
2018-07-04T16:38:53.580Z,4.57
2018-07-04T16:41:33.996Z,5.00
2018-07-04T16:44:08.391Z,4.90
2018-07-04T16:46:48.659Z,4.87
2018-07-04T16:49:29.054Z,5.10
2018-07-04T16:52:09.565Z,5.10
2018-07-04T16:54:49.965Z,4.70
2018-07-04T16:57:30.588Z,4.70
2018-07-04T17:00:11.089Z,4.27
2018-07-04T17:02:52.220Z,3.50
2018-07-04T17:05:32.601Z,3.23
2018-07-04T17:08:13.040Z,3.03
2018-07-04T17:10:53.312Z,3.47
2018-07-04T17:13:33.645Z,3.33
2018-07-04T17:16:14.061Z,3.50
2018-07-04T17:18:54.596Z,3.20
2018-07-04T17:21:35.032Z,3.30
2018-07-04T17:24:15.865Z,3.20
2018-07-04T17:26:56.306Z,3.30
2018-07-04T17:29:36.780Z,3.00
2018-07-04T17:32:17.258Z,3.30
2018-07-04T17:34:57.642Z,3.70
2018-07-04T17:37:38.112Z,2.67
2018-07-04T17:40:18.443Z,3.10
2018-07-04T17:42:58.839Z,3.53
2018-07-04T17:45:39.209Z,3.20
2018-07-04T17:48:19.822Z,3.00
2018-07-04T17:51:00.343Z,3.33
2018-07-04T17:53:40.603Z,3.80
2018-07-04T17:56:21.304Z,3.53
2018-07-04T17:59:01.705Z,3.30
2018-07-04T18:01:41.975Z,3.60
2018-07-04T18:04:22.336Z,3.50
2018-07-04T18:07:02.757Z,3.13
2018-07-04T18:09:43.192Z,3.80
2018-07-04T18:12:23.515Z,3.60
2018-07-04T18:15:04.102Z,3.73
2018-07-04T18:17:44.557Z,3.57
2018-07-04T18:20:24.911Z,3.97
2018-07-04T18:23:05.284Z,3.80
2018-07-04T18:25:45.667Z,4.03
2018-07-04T18:28:25.968Z,4.77
2018-07-04T18:31:06.399Z,4.13
2018-07-04T18:33:46.854Z,4.27
2018-07-04T18:39:12.776Z,4.37
2018-07-04T18:41:53.160Z,4.37
2018-07-04T18:44:33.532Z,4.83
2018-07-04T18:47:13.807Z,4.60
2018-07-04T18:49:54.083Z,4.17
2018-07-04T18:52:34.444Z,4.03
2018-07-04T18:55:15.016Z,4.50
2018-07-04T18:57:55.271Z,4.67
2018-07-04T19:00:35.629Z,4.40
2018-07-04T19:03:16.187Z,4.50
2018-07-04T19:05:56.583Z,4.60
2018-07-04T19:08:37.128Z,3.80
2018-07-04T19:11:17.495Z,4.20
2018-07-04T19:13:58.111Z,5.20
2018-07-04T19:16:38.517Z,4.03
2018-07-04T19:19:19.270Z,4.37
2018-07-04T19:21:59.700Z,4.20
2018-07-04T19:24:40.059Z,4.13
2018-07-04T19:27:20.484Z,5.20
2018-07-04T19:30:01.014Z,4.63
2018-07-04T19:32:41.372Z,4.73
2018-07-04T19:35:21.843Z,4.03
2018-07-04T19:38:02.244Z,3.90
2018-07-04T19:40:42.672Z,4.30
2018-07-04T19:43:23.127Z,3.83
2018-07-04T19:46:04.020Z,4.47
2018-07-04T19:48:38.332Z,4.00
2018-07-04T19:51:18.701Z,3.50
2018-07-04T19:53:59.001Z,4.37
2018-07-04T19:56:39.437Z,4.10
2018-07-04T19:59:19.683Z,4.47
2018-07-04T20:02:00.011Z,3.80
2018-07-04T20:04:40.463Z,4.07
2018-07-04T20:07:20.859Z,3.90
2018-07-04T20:10:01.327Z,5.20
2018-07-04T20:12:42.363Z,5.37
2018-07-04T20:15:22.696Z,4.60
2018-07-04T20:18:03.211Z,4.10
2018-07-04T20:20:43.740Z,4.50
2018-07-04T20:23:24.699Z,4.77
2018-07-04T20:26:05.222Z,4.90
2018-07-04T20:28:45.766Z,4.90
2018-07-04T20:31:20.272Z,4.10
2018-07-04T20:33:55.567Z,3.93
2018-07-04T20:36:35.910Z,4.30
2018-07-04T20:39:16.295Z,5.33
2018-07-04T20:41:56.559Z,5.13
2018-07-04T20:44:37.664Z,5.03
2018-07-04T20:47:18.323Z,7.83
2018-07-04T20:49:58.692Z,8.40
2018-07-04T20:52:39.116Z,11.13
2018-07-04T20:55:19.570Z,5.63
2018-07-04T20:57:59.934Z,4.33
2018-07-04T21:00:40.380Z,4.63
2018-07-04T21:03:20.856Z,4.40
2018-07-04T21:06:01.410Z,4.70
2018-07-04T21:08:42.253Z,4.70
2018-07-04T21:11:22.670Z,5.00
2018-07-04T21:14:03.105Z,4.93
2018-07-04T21:16:43.550Z,5.07
2018-07-04T21:19:24.000Z,5.30
2018-07-04T21:22:04.371Z,4.87
2018-07-04T21:24:44.852Z,5.30
2018-07-04T21:27:25.143Z,5.13
2018-07-04T21:30:06.055Z,5.47
2018-07-04T21:32:46.727Z,5.17
2018-07-04T21:35:27.083Z,4.10
2018-07-04T21:38:07.645Z,5.40
2018-07-04T21:40:47.887Z,4.97
2018-07-04T21:43:28.444Z,4.73
2018-07-04T21:46:08.879Z,5.50
2018-07-04T21:48:49.373Z,14.50
2018-07-04T21:51:29.959Z,7.97
2018-07-04T21:54:10.281Z,11.60
2018-07-04T21:56:50.797Z,6.53
2018-07-04T21:59:31.338Z,5.87
2018-07-04T22:02:12.068Z,4.37
2018-07-04T22:04:52.524Z,5.13
2018-07-04T22:07:33.162Z,5.13
2018-07-04T22:10:13.549Z,5.43
2018-07-04T22:12:53.931Z,6.00
2018-07-04T22:15:34.408Z,5.80
2018-07-04T22:18:14.961Z,5.50
2018-07-04T22:20:55.360Z,9.90
2018-07-04T22:23:35.669Z,5.60
2018-07-04T22:26:16.123Z,5.50
2018-07-04T22:28:56.642Z,11.40
2018-07-04T22:31:37.007Z,8.70
2018-07-04T22:34:17.416Z,6.77
2018-07-04T22:36:57.815Z,6.73
2018-07-04T22:39:38.475Z,22.17
2018-07-04T22:42:19.319Z,17.33
2018-07-04T22:44:59.821Z,7.03
2018-07-04T22:47:40.355Z,7.53
2018-07-04T22:50:20.637Z,58.47
2018-07-04T22:53:01.254Z,37.93
2018-07-04T22:55:42.475Z,6.43
2018-07-04T22:58:22.913Z,6.00
2018-07-04T23:01:03.251Z,6.17
2018-07-04T23:03:43.687Z,6.23
2018-07-04T23:06:24.137Z,8.10
2018-07-04T23:09:05.344Z,8.07
2018-07-04T23:11:45.871Z,6.10
2018-07-04T23:14:26.403Z,6.37
2018-07-04T23:17:06.800Z,7.40
2018-07-04T23:19:47.345Z,6.57
2018-07-04T23:22:27.739Z,8.80
2018-07-04T23:25:08.144Z,7.20
2018-07-04T23:27:48.768Z,7.70
2018-07-04T23:30:29.220Z,7.00
2018-07-04T23:33:09.631Z,6.30
2018-07-04T23:35:49.911Z,8.07
2018-07-04T23:38:30.556Z,6.73
2018-07-04T23:41:10.963Z,6.70
2018-07-04T23:43:51.392Z,6.97
2018-07-04T23:46:31.899Z,7.00
2018-07-04T23:49:12.343Z,6.13
2018-07-04T23:51:52.761Z,7.70
2018-07-04T23:54:33.095Z,10.30
2018-07-04T23:57:13.381Z,12.50
2018-07-04T23:59:53.780Z,6.83
